Time;durP1;ratioP1;P1;durP2;ratioP2;P2;SDS_P1;SDS_P2;PMS_P1;PMS_P2;Temp;Humidity;BMP_temperature;BMP_pressure;BME280_temperature;BME280_humidity;BME280_pressure;Samples;Min_cycle;Max_cycle;Signal;HPM_P1;HPM_P2
2024/03/12 00:00:45;;;;;;;0.60;0.60;;;7.90;99.90;;;;;;4991982;28;20120;-77
2024/03/12 00:03:11;;;;;;;0.35;0.35;;;7.90;99.90;;;;;;4992424;28;20045;-76
2024/03/12 00:05:37;;;;;;;0.32;0.32;;;7.90;99.90;;;;;;5006490;28;20319;-77
2024/03/12 00:08:03;;;;;;;0.50;0.50;;;6.40;99.90;;;;;;5009098;28;20037;-77
2024/03/12 00:10:29;;;;;;;0.40;0.40;;;7.90;99.90;;;;;;5024908;28;20045;-77
2024/03/12 00:12:56;;;;;;;0.70;0.70;;;7.90;99.90;;;;;;5008041;28;20086;-76
2024/03/12 00:15:23;;;;;;;0.90;0.90;;;7.90;99.90;;;;;;5008180;28;20481;-77
2024/03/12 00:17:51;;;;;;;0.85;0.85;;;7.90;99.90;;;;;;5007779;28;20045;-76
2024/03/12 00:20:17;;;;;;;0.50;0.50;;;7.90;99.90;;;;;;5008583;28;20112;-77
2024/03/12 00:22:48;;;;;;;0.60;0.60;;;7.90;99.90;;;;;;5007732;28;20415;-76
2024/03/12 00:25:16;;;;;;;1.45;1.35;;;7.90;99.90;;;;;;5008830;28;20037;-76
2024/03/12 00:27:42;;;;;;;2.28;1.45;;;7.90;99.90;;;;;;5008459;28;20410;-76
2024/03/12 00:30:09;;;;;;;7.22;1.13;;;7.90;99.90;;;;;;4990475;28;20132;-76
2024/03/12 00:32:36;;;;;;;1.15;1.05;;;7.90;99.90;;;;;;5007479;28;20080;-76
2024/03/12 00:35:06;;;;;;;2.33;2.22;;;7.80;99.90;;;;;;4974529;28;20037;-77
2024/03/12 00:37:34;;;;;;;2.05;1.05;;;7.80;99.90;;;;;;5009123;28;20570;-76
2024/03/12 00:40:00;;;;;;;1.58;1.50;;;7.80;99.90;;;;;;5024786;28;20048;-76
2024/03/12 00:42:26;;;;;;;1.33;1.33;;;7.80;99.90;;;;;;5008336;28;20477;-76
2024/03/12 00:44:52;;;;;;;2.22;1.92;;;7.80;99.90;;;;;;5007161;28;20447;-77
2024/03/12 00:47:21;;;;;;;0.98;0.98;;;7.80;99.90;;;;;;4995468;28;20033;-76
2024/03/12 00:49:50;;;;;;;1.75;1.65;;;7.80;99.90;;;;;;5003923;28;20531;-77
2024/03/12 00:52:17;;;;;;;1.70;1.60;;;7.80;99.90;;;;;;5006682;28;20414;-76
2024/03/12 00:54:46;;;;;;;0.73;0.73;;;7.70;99.90;;;;;;5029508;28;20045;-76
2024/03/12 00:57:13;;;;;;;1.35;0.93;;;7.70;99.90;;;;;;5008901;28;20034;-77
2024/03/12 00:59:40;;;;;;;0.63;0.63;;;7.70;99.90;;;;;;5008210;28;20038;-77
2024/03/12 01:02:10;;;;;;;0.60;0.60;;;7.70;99.90;;;;;;5026170;28;20041;-78
2024/03/12 01:04:38;;;;;;;2.95;1.90;;;7.70;99.90;;;;;;5009739;28;20041;-77
2024/03/12 01:07:07;;;;;;;2.88;2.20;;;7.70;99.90;;;;;;4995245;28;20477;-77
2024/03/12 01:09:39;;;;;;;0.60;0.60;;;7.70;99.90;;;;;;5007647;28;20050;-77
2024/03/12 01:12:07;;;;;;;2.42;2.30;;;7.70;99.90;;;;;;4990382;28;20038;-77
2024/03/12 01:14:34;;;;;;;1.88;1.70;;;7.60;99.90;;;;;;5009789;28;20037;-78
2024/03/12 01:16:59;;;;;;;4.07;1.05;;;7.70;99.90;;;;;;5008929;28;20045;-78
2024/03/12 01:19:26;;;;;;;1.20;1.20;;;7.60;99.90;;;;;;5011078;28;20084;-78
2024/03/12 01:21:53;;;;;;;0.95;0.95;;;7.60;99.90;;;;;;5014326;28;20044;-78
2024/03/12 01:24:19;;;;;;;1.40;1.33;;;7.60;99.90;;;;;;4991769;28;20038;-78
2024/03/12 01:26:44;;;;;;;2.17;2.00;;;7.60;99.90;;;;;;4983973;28;20489;-77
2024/03/12 01:29:10;;;;;;;0.65;0.65;;;7.60;99.90;;;;;;5010547;28;20030;-77
2024/03/12 01:31:36;;;;;;;2.83;2.63;;;7.50;99.90;;;;;;4990463;28;20046;-77
2024/03/12 01:34:01;;;;;;;1.50;1.40;;;7.50;99.90;;;;;;5009566;28;20052;-77
2024/03/12 01:36:34;;;;;;;0.73;0.73;;;7.50;99.90;;;;;;5008375;28;20115;-78
2024/03/12 01:39:07;;;;;;;0.73;0.73;;;7.50;99.90;;;;;;5007669;28;20034;-77
2024/03/12 01:41:34;;;;;;;2.75;2.13;;;7.40;99.90;;;;;;4995300;28;20153;-77
2024/03/12 01:44:02;;;;;;;1.55;1.25;;;7.40;99.90;;;;;;5013413;28;20426;-77
2024/03/12 01:46:34;;;;;;;3.03;2.55;;;7.40;99.90;;;;;;5008316;28;20064;-77
2024/03/12 01:49:00;;;;;;;1.38;1.27;;;7.40;99.90;;;;;;5008176;28;20095;-76
2024/03/12 01:51:29;;;;;;;1.20;1.10;;;7.40;99.90;;;;;;4992778;28;20053;-76
2024/03/12 01:53:56;;;;;;;1.58;1.52;;;7.40;99.90;;;;;;4992186;28;20038;-77
2024/03/12 01:56:24;;;;;;;1.40;1.35;;;7.40;99.90;;;;;;5011867;28;20137;-77
2024/03/12 01:58:53;;;;;;;0.80;0.80;;;7.40;99.90;;;;;;4979970;28;20423;-75
2024/03/12 02:01:22;;;;;;;0.63;0.63;;;7.30;99.90;;;;;;4993612;28;20096;-76
2024/03/12 02:03:51;;;;;;;0.50;0.50;;;7.30;99.90;;;;;;5008041;28;20505;-76
2024/03/12 02:06:19;;;;;;;1.23;1.13;;;7.30;99.90;;;;;;5007971;28;20045;-75
2024/03/12 02:08:46;;;;;;;0.93;0.93;;;7.20;99.90;;;;;;5013008;28;20041;-76
2024/03/12 02:11:12;;;;;;;1.15;1.10;;;7.20;99.90;;;;;;4992892;28;20476;-77
2024/03/12 02:13:38;;;;;;;0.75;0.68;;;7.20;99.90;;;;;;5014188;28;20164;-75
2024/03/12 02:16:05;;;;;;;2.28;1.27;;;7.20;99.90;;;;;;5017394;28;20045;-75
2024/03/12 02:18:32;;;;;;;4.97;4.57;;;7.20;99.90;;;;;;5010172;28;20560;-76
2024/03/12 02:20:58;;;;;;;2.20;1.67;;;7.20;99.90;;;;;;5014788;28;20451;-75
2024/03/12 02:23:40;;;;;;;1.50;1.40;;;7.20;99.90;;;;;;4999948;28;20038;-76
2024/03/12 02:26:07;;;;;;;1.52;1.42;;;7.20;99.90;;;;;;4993200;28;20507;-75
2024/03/12 02:28:33;;;;;;;3.08;2.45;;;7.20;99.90;;;;;;4998343;28;20049;-76
2024/03/12 02:30:59;;;;;;;2.05;1.73;;;7.20;99.90;;;;;;5017019;28;20456;-77
2024/03/12 02:33:25;;;;;;;5.18;2.70;;;7.20;99.90;;;;;;4997623;28;20093;-76
2024/03/12 02:35:51;;;;;;;2.35;2.17;;;7.20;99.90;;;;;;5014268;28;20068;-77
2024/03/12 02:38:18;;;;;;;2.38;1.98;;;7.30;99.90;;;;;;5017375;28;20120;-77
2024/03/12 02:40:45;;;;;;;1.75;1.60;;;7.30;99.90;;;;;;4975522;28;20057;-76
2024/03/12 02:43:13;;;;;;;2.75;1.73;;;7.30;99.90;;;;;;4997276;28;20129;-76
2024/03/12 02:45:39;;;;;;;0.63;0.63;;;7.30;99.90;;;;;;5009348;28;20049;-76
2024/03/12 02:48:06;;;;;;;2.13;1.23;;;7.30;99.90;;;;;;4998734;28;20137;-76
2024/03/12 02:50:31;;;;;;;;;;;7.30;99.90;;;;;;5032584;28;20049;-76
2024/03/12 02:52:58;;;;;;;1.02;1.02;;;7.40;99.90;;;;;;5014141;28;20420;-77
2024/03/12 02:55:24;;;;;;;1.35;1.35;;;7.40;99.90;;;;;;5012149;28;20046;-77
2024/03/12 02:57:49;;;;;;;2.22;2.13;;;7.40;99.90;;;;;;4996678;28;20076;-76
2024/03/12 03:00:15;;;;;;;0.50;0.50;;;7.40;99.90;;;;;;5015661;28;20524;-76
2024/03/12 03:02:42;;;;;;;0.77;0.77;;;7.40;99.90;;;;;;5019381;28;20049;-76
2024/03/12 03:05:11;;;;;;;1.77;1.67;;;7.40;99.90;;;;;;4995834;28;20045;-77
2024/03/12 03:07:37;;;;;;;1.90;1.80;;;7.40;99.90;;;;;;5011085;28;20073;-76
2024/03/12 03:10:03;;;;;;;0.50;0.50;;;7.40;99.90;;;;;;5012564;28;20545;-77
2024/03/12 03:12:29;;;;;;;3.22;1.30;;;7.40;99.90;;;;;;4999541;28;20046;-76
2024/03/12 03:14:55;;;;;;;0.88;0.88;;;7.40;99.90;;;;;;5012286;28;20046;-77
2024/03/12 03:17:21;;;;;;;4.93;4.55;;;7.40;99.90;;;;;;5009577;28;20053;-77
2024/03/12 03:19:50;;;;;;;0.77;0.77;;;7.40;99.90;;;;;;5014990;28;20040;-77
2024/03/12 03:22:16;;;;;;;1.67;1.35;;;7.40;99.90;;;;;;5013137;28;20046;-76
2024/03/12 03:24:42;;;;;;;;;;;7.40;99.90;;;;;;4993825;28;20042;-76
2024/03/12 03:27:09;;;;;;;2.15;2.03;;;7.40;99.90;;;;;;5014881;28;19932;-76
2024/03/12 03:29:35;;;;;;;;;;;7.40;99.90;;;;;;4980779;28;20042;-77
2024/03/12 03:32:02;;;;;;;1.95;1.85;;;7.40;99.90;;;;;;5011993;28;19994;-76
2024/03/12 03:34:29;;;;;;;1.80;1.70;;;7.40;99.90;;;;;;5011291;28;20042;-76
2024/03/12 03:36:58;;;;;;;1.60;1.27;;;7.40;99.90;;;;;;5009941;28;20073;-76
2024/03/12 03:39:26;;;;;;;1.90;1.80;;;7.40;99.90;;;;;;5008646;28;20408;-77
2024/03/12 03:41:55;;;;;;;2.45;2.35;;;7.40;99.90;;;;;;4996579;28;20505;-77
2024/03/12 03:44:22;;;;;;;1.50;1.40;;;7.40;99.90;;;;;;5010120;28;20402;-77
2024/03/12 03:46:48;;;;;;;1.30;1.23;;;7.40;99.90;;;;;;4996016;28;20041;-77
2024/03/12 03:49:14;;;;;;;1.10;1.10;;;7.40;99.90;;;;;;4994015;28;20052;-77
2024/03/12 03:51:41;;;;;;;1.48;1.42;;;7.30;99.90;;;;;;5010422;28;20497;-76
2024/03/12 03:54:09;;;;;;;2.97;2.78;;;7.40;99.90;;;;;;5008932;28;20047;-77
2024/03/12 03:56:35;;;;;;;2.17;2.08;;;7.40;99.90;;;;;;4996081;28;20045;-77
2024/03/12 03:59:01;;;;;;;0.93;0.93;;;7.30;99.90;;;;;;5010208;28;20042;-76
2024/03/12 04:01:30;;;;;;;;;;;7.40;99.90;;;;;;4997876;28;20041;-76
2024/03/12 04:03:56;;;;;;;4.63;2.25;;;7.40;99.90;;;;;;5008006;28;19927;-76
2024/03/12 04:06:22;;;;;;;1.73;1.63;;;7.30;99.90;;;;;;5008790;28;20096;-76
2024/03/12 04:08:49;;;;;;;2.75;2.30;;;7.30;99.90;;;;;;5015559;28;20041;-76
2024/03/12 04:11:20;;;;;;;2.28;2.08;;;7.30;99.90;;;;;;4989975;28;20069;-76
2024/03/12 04:13:54;;;;;;;2.40;2.20;;;7.30;99.90;;;;;;5013532;28;20473;-77
2024/03/12 04:16:20;;;;;;;1.52;1.42;;;7.30;99.90;;;;;;4995803;28;20046;-76
2024/03/12 04:18:46;;;;;;;1.77;1.65;;;7.30;99.90;;;;;;5011331;28;20042;-77
2024/03/12 04:21:12;;;;;;;1.35;1.35;;;7.30;99.90;;;;;;5013105;28;20409;-77
2024/03/12 04:23:38;;;;;;;1.85;1.27;;;7.30;99.90;;;;;;5014026;28;20045;-77
2024/03/12 04:26:04;;;;;;;1.85;1.52;;;7.30;99.90;;;;;;5010196;28;20045;-77
2024/03/12 04:28:31;;;;;;;2.08;1.98;;;7.30;99.90;;;;;;4998167;28;20559;-76
2024/03/12 04:30:57;;;;;;;1.77;1.67;;;7.30;99.90;;;;;;4993561;28;20042;-76
2024/03/12 04:33:24;;;;;;;1.15;1.15;;;7.30;99.90;;;;;;4979822;28;20045;-76
2024/03/12 04:35:52;;;;;;;1.70;1.60;;;7.30;99.90;;;;;;4995827;28;20489;-76
2024/03/12 04:38:20;;;;;;;0.82;0.82;;;7.30;99.90;;;;;;5014277;28;20045;-76
2024/03/12 04:40:47;;;;;;;4.57;4.07;;;7.30;99.90;;;;;;5012662;28;20037;-76
2024/03/12 04:43:14;;;;;;;1.58;0.80;;;7.30;99.90;;;;;;5009425;28;20045;-76
2024/03/12 04:45:40;;;;;;;1.63;1.50;;;7.30;99.90;;;;;;5033581;28;20057;-76
2024/03/12 04:48:11;;;;;;;;;;;7.30;99.90;;;;;;5010573;28;20064;-76
2024/03/12 04:50:37;;;;;;;2.90;1.45;;;7.30;99.90;;;;;;5016962;28;19925;-76
2024/03/12 04:53:07;;;;;;;1.45;1.35;;;7.30;99.90;;;;;;4998192;28;20033;-76
2024/03/12 04:55:34;;;;;;;0.50;0.50;;;7.30;99.90;;;;;;5010983;28;20116;-76
2024/03/12 04:58:00;;;;;;;2.20;2.00;;;7.30;99.90;;;;;;4995141;28;20049;-76
2024/03/12 05:00:26;;;;;;;;;;;7.30;99.90;;;;;;4999026;28;20038;-76
2024/03/12 05:02:52;;;;;;;0.60;0.60;;;7.30;99.90;;;;;;5015022;28;19920;-76
2024/03/12 05:05:19;;;;;;;0.70;0.70;;;7.30;99.90;;;;;;5031071;28;20087;-76
2024/03/12 05:07:48;;;;;;;0.52;0.52;;;7.30;99.90;;;;;;4994593;28;20505;-77
2024/03/12 05:10:14;;;;;;;1.05;0.93;;;7.30;99.90;;;;;;5011132;28;20404;-77
2024/03/12 05:12:40;;;;;;;1.73;1.63;;;7.30;99.90;;;;;;5006971;28;20041;-76
2024/03/12 05:15:09;;;;;;;0.88;0.85;;;7.30;99.90;;;;;;5010362;28;20468;-77
2024/03/12 05:17:42;;;;;;;1.42;0.90;;;7.30;99.90;;;;;;4993670;28;20469;-77
2024/03/12 05:20:17;;;;;;;0.88;0.82;;;7.30;99.90;;;;;;5012327;28;20426;-76
2024/03/12 05:22:43;;;;;;;0.98;0.98;;;7.30;99.90;;;;;;4981884;28;20620;-76
2024/03/12 05:25:13;;;;;;;;;;;7.30;99.90;;;;;;4997640;28;20041;-76
2024/03/12 05:27:42;;;;;;;0.90;0.90;;;7.40;99.90;;;;;;5019643;28;19999;-76
2024/03/12 05:30:14;;;;;;;1.40;1.02;;;7.30;99.90;;;;;;4980073;28;20045;-76
2024/03/12 05:32:47;;;;;;;2.20;2.05;;;7.30;99.90;;;;;;5014097;28;20100;-76
2024/03/12 05:35:22;;;;;;;0.98;0.88;;;7.30;99.90;;;;;;4996268;28;20037;-76
2024/03/12 05:40:46;;;;;;;1.52;1.38;;;7.30;99.90;;;;;;5011170;28;20417;-78
2024/03/12 05:48:43;;;;;;;1.70;1.60;;;7.30;99.90;;;;;;5015790;28;20452;-77
2024/03/12 05:51:09;;;;;;;1.48;1.48;;;7.30;99.90;;;;;;5001688;28;20334;-77
2024/03/12 05:53:38;;;;;;;1.48;1.45;;;7.30;99.90;;;;;;5023544;28;20042;-77
2024/03/12 05:56:11;;;;;;;1.73;1.63;;;7.30;99.90;;;;;;5007397;28;20501;-78
2024/03/12 05:58:38;;;;;;;1.38;1.38;;;7.30;99.90;;;;;;5018048;28;20141;-78
2024/03/12 06:01:04;;;;;;;;;;;7.30;99.90;;;;;;5018139;28;20049;-78
2024/03/12 06:03:36;;;;;;;2.50;2.30;;;7.30;99.90;;;;;;5019391;28;19983;-77
2024/03/12 06:06:07;;;;;;;1.75;1.05;;;7.30;99.90;;;;;;5017153;28;20043;-76
2024/03/12 06:08:33;;;;;;;2.75;2.55;;;7.30;99.90;;;;;;5037487;28;20552;-76
2024/03/12 06:10:59;;;;;;;3.28;2.92;;;7.30;99.90;;;;;;5006616;28;20077;-77
2024/03/12 06:13:25;;;;;;;2.25;1.88;;;7.30;99.90;;;;;;5020343;28;20124;-76
2024/03/12 06:15:51;;;;;;;3.55;2.90;;;7.30;99.90;;;;;;4998526;28;20033;-77
2024/03/12 06:18:22;;;;;;;1.95;1.85;;;7.30;99.90;;;;;;5035758;28;20088;-78
2024/03/12 06:20:49;;;;;;;4.00;1.80;;;7.20;99.90;;;;;;4996682;28;20046;-79
2024/03/12 06:23:18;;;;;;;1.48;1.38;;;7.30;99.90;;;;;;5031122;28;20045;-80
2024/03/12 06:25:44;;;;;;;5.47;2.50;;;7.20;99.90;;;;;;4997197;28;20044;-80
2024/03/12 06:28:11;;;;;;;1.67;1.58;;;7.20;99.90;;;;;;5015408;28;20046;-80
2024/03/12 06:30:38;;;;;;;2.33;2.20;;;7.20;99.90;;;;;;5035421;28;20103;-80
2024/03/12 06:33:06;;;;;;;3.45;3.25;;;7.20;99.90;;;;;;5011644;28;20465;-80
2024/03/12 06:35:34;;;;;;;1.17;1.17;;;7.20;99.90;;;;;;5018287;28;20034;-79
2024/03/12 06:38:00;;;;;;;1.52;1.42;;;7.20;99.90;;;;;;5033998;28;20821;-80
2024/03/12 06:40:25;;;;;;;4.22;1.83;;;7.20;99.90;;;;;;5013729;28;20567;-79
2024/03/12 06:42:52;;;;;;;2.70;2.38;;;7.20;99.90;;;;;;5018361;28;20049;-79
2024/03/12 06:45:19;;;;;;;1.67;1.58;;;7.20;99.90;;;;;;5021681;28;20041;-78
2024/03/12 06:47:47;;;;;;;2.20;2.03;;;7.20;99.90;;;;;;5017007;28;20132;-78
2024/03/12 06:50:14;;;;;;;0.50;0.50;;;7.20;99.90;;;;;;5017374;28;20099;-78
2024/03/12 06:52:41;;;;;;;3.20;2.58;;;7.20;99.90;;;;;;5016064;28;20064;-79
2024/03/12 06:55:15;;;;;;;1.40;1.33;;;7.20;99.90;;;;;;5019192;28;20041;-76
2024/03/12 06:57:48;;;;;;;5.20;1.98;;;7.20;99.90;;;;;;5040872;28;20501;-76
2024/03/12 07:00:22;;;;;;;2.22;2.13;;;7.20;99.90;;;;;;5015988;28;20041;-76
2024/03/12 07:02:49;;;;;;;1.90;1.80;;;7.20;99.90;;;;;;5015471;28;20136;-76
2024/03/12 07:05:15;;;;;;;1.33;1.17;;;7.20;99.90;;;;;;5017902;28;20120;-76
2024/03/12 07:07:44;;;;;;;2.45;1.90;;;7.20;99.90;;;;;;5000259;28;20073;-76
2024/03/12 07:10:11;;;;;;;2.88;2.67;;;7.20;99.90;;;;;;5019821;28;20512;-79
2024/03/12 07:12:37;;;;;;;1.38;1.30;;;7.30;99.90;;;;;;5011310;28;20044;-79
2024/03/12 07:15:05;;;;;;;;;;;7.30;99.90;;;;;;5012685;28;20076;-77
2024/03/12 07:17:30;;;;;;;3.28;3.00;;;7.30;99.90;;;;;;5009810;28;19928;-79
2024/03/12 07:19:58;;;;;;;1.67;1.58;;;7.30;99.90;;;;;;5012685;28;20045;-81
2024/03/12 07:22:25;;;;;;;2.78;2.58;;;7.30;99.90;;;;;;5010937;28;20037;-78
2024/03/12 07:24:51;;;;;;;1.15;1.15;;;7.30;99.90;;;;;;5032291;28;20393;-77
2024/03/12 07:27:18;;;;;;;26.73;5.65;;;7.30;99.90;;;;;;4997973;28;20575;-77
2024/03/12 07:29:44;;;;;;;1.13;1.02;;;7.30;99.90;;;;;;5012528;28;20033;-77
2024/03/12 07:32:10;;;;;;;0.88;0.88;;;7.40;99.90;;;;;;4999059;28;20408;-77
2024/03/12 07:34:39;;;;;;;2.03;1.92;;;7.30;99.90;;;;;;5012996;28;20048;-77
2024/03/12 07:37:05;;;;;;;4.15;3.28;;;7.30;99.90;;;;;;4997989;28;20037;-78
2024/03/12 07:39:34;;;;;;;5.30;3.45;;;7.40;99.90;;;;;;5035179;28;20488;-78
2024/03/12 07:42:09;;;;;;;2.15;1.08;;;7.30;99.90;;;;;;4998206;28;20116;-77
2024/03/12 07:44:37;;;;;;;1.73;1.08;;;7.30;99.90;;;;;;5012399;28;20045;-77
2024/03/12 07:47:03;;;;;;;3.40;1.27;;;7.40;99.90;;;;;;5032092;28;20029;-76
2024/03/12 07:49:32;;;;;;;2.85;2.55;;;7.40;99.90;;;;;;5028278;28;20150;-80
2024/03/12 07:52:00;;;;;;;2.40;1.42;;;7.30;99.90;;;;;;5013058;28;20062;-77
2024/03/12 07:54:26;;;;;;;1.55;1.52;;;7.30;99.90;;;;;;5030648;28;20060;-79
2024/03/12 07:56:52;;;;;;;3.22;2.95;;;7.40;99.90;;;;;;4996415;28;20060;-81
2024/03/12 07:59:22;;;;;;;2.10;1.63;;;7.40;99.90;;;;;;5013479;28;20041;-80
2024/03/12 08:01:49;;;;;;;2.90;2.80;;;7.40;99.90;;;;;;5027650;28;20509;-80
2024/03/12 08:04:16;;;;;;;1.55;1.45;;;7.40;99.90;;;;;;5031812;28;20065;-80
2024/03/12 08:06:43;;;;;;;1.77;1.55;;;7.40;99.90;;;;;;5012243;28;20579;-80
2024/03/12 08:09:09;;;;;;;3.00;2.80;;;7.50;99.90;;;;;;5013115;28;20392;-79
2024/03/12 08:11:36;;;;;;;1.83;1.73;;;7.50;99.90;;;;;;5011518;28;20075;-80
2024/03/12 08:14:03;;;;;;;6.22;4.43;;;7.50;99.90;;;;;;5014586;28;20105;-80
2024/03/12 08:16:31;;;;;;;1.98;1.88;;;7.60;99.90;;;;;;4982212;28;20092;-80
2024/03/12 08:19:01;;;;;;;2.45;1.60;;;7.60;99.90;;;;;;5029998;28;20060;-80
2024/03/12 08:21:27;;;;;;;13.25;2.05;;;7.60;99.90;;;;;;5027533;28;20111;-80
2024/03/12 08:23:56;;;;;;;1.92;1.83;;;7.70;99.90;;;;;;5030331;28;20068;-80
2024/03/12 08:26:22;;;;;;;6.70;6.22;;;7.70;99.90;;;;;;5027451;28;20041;-79
2024/03/12 08:28:47;;;;;;;5.90;2.45;;;7.70;99.90;;;;;;5013801;28;20567;-81
2024/03/12 08:31:15;;;;;;;5.15;2.80;;;7.80;99.90;;;;;;4996844;28;20120;-79
2024/03/12 08:33:41;;;;;;;2.55;2.25;;;7.80;99.90;;;;;;5031873;28;20090;-80
2024/03/12 08:36:07;;;;;;;2.58;2.38;;;7.80;99.90;;;;;;4996734;28;20481;-80
2024/03/12 08:38:34;;;;;;;2.75;2.58;;;7.80;99.90;;;;;;4996657;28;20120;-82
2024/03/12 08:41:00;;;;;;;1.63;1.52;;;7.80;99.90;;;;;;5011208;28;20052;-80
2024/03/12 08:43:26;;;;;;;2.60;2.45;;;7.80;99.90;;;;;;5012362;28;20049;-80
2024/03/12 08:45:52;;;;;;;2.95;2.70;;;7.80;99.90;;;;;;4967141;28;20037;-80
2024/03/12 08:48:18;;;;;;;1.20;1.17;;;7.80;99.90;;;;;;5012799;28;20041;-80
2024/03/12 08:50:43;;;;;;;2.17;2.08;;;7.80;99.90;;;;;;5011538;28;20068;-80
2024/03/12 08:53:11;;;;;;;3.50;2.22;;;7.80;99.90;;;;;;5012337;28;20057;-80
2024/03/12 08:55:40;;;;;;;2.17;2.08;;;7.80;99.90;;;;;;5027284;28;20049;-80
2024/03/12 08:58:06;;;;;;;5.72;5.32;;;7.90;99.90;;;;;;5011636;28;20033;-80
2024/03/12 09:00:32;;;;;;;3.78;3.50;;;7.90;99.90;;;;;;5000553;28;20037;-81
2024/03/12 09:02:59;;;;;;;5.40;2.92;;;7.90;99.90;;;;;;5001726;28;20041;-80
2024/03/12 09:05:25;;;;;;;2.22;2.10;;;8.00;99.90;;;;;;5012891;28;20159;-80
2024/03/12 09:07:51;;;;;;;5.18;3.28;;;7.90;99.90;;;;;;5011915;28;20103;-79
2024/03/12 09:10:17;;;;;;;2.45;2.25;;;7.90;99.90;;;;;;5013148;28;20048;-80
2024/03/12 09:12:42;;;;;;;1.70;1.60;;;7.90;99.90;;;;;;5012358;28;20557;-81
2024/03/12 09:15:09;;;;;;;1.98;1.88;;;7.90;99.90;;;;;;4996076;28;20041;-81
2024/03/12 09:17:38;;;;;;;4.38;3.85;;;7.90;99.90;;;;;;5030117;28;20061;-80
2024/03/12 09:20:10;;;;;;;4.78;4.32;;;7.80;99.90;;;;;;5016318;28;20041;-81
2024/03/12 09:22:36;;;;;;;1.63;1.52;;;7.80;99.90;;;;;;5000800;28;20045;-82
2024/03/12 09:25:04;;;;;;;2.22;2.13;;;7.80;99.90;;;;;;4997082;28;20045;-81
2024/03/12 09:27:31;;;;;;;4.13;2.42;;;7.80;99.90;;;;;;5030069;28;20440;-82
2024/03/12 09:29:57;;;;;;;1.33;1.33;;;7.80;99.90;;;;;;4995739;28;20060;-82
2024/03/12 09:32:24;;;;;;;3.72;3.53;;;7.80;99.90;;;;;;5011402;28;20473;-82
2024/03/12 09:34:52;;;;;;;2.03;1.92;;;7.90;99.90;;;;;;4979084;28;20041;-82
2024/03/12 09:37:19;;;;;;;7.38;2.08;;;7.90;99.90;;;;;;5009493;28;20576;-82
2024/03/12 09:39:44;;;;;;;1.92;1.83;;;7.90;99.90;;;;;;4995851;28;20386;-82
2024/03/12 09:42:14;;;;;;;3.92;3.63;;;8.00;99.90;;;;;;5027343;28;20117;-82
2024/03/12 09:44:41;;;;;;;3.65;3.35;;;8.00;99.90;;;;;;5006179;28;20046;-82
2024/03/12 09:47:09;;;;;;;2.13;1.92;;;8.00;99.90;;;;;;5011089;28;20073;-81
2024/03/12 09:49:35;;;;;;;11.10;5.45;;;8.10;99.90;;;;;;5028458;28;20085;-84
2024/03/12 09:52:06;;;;;;;3.00;2.80;;;8.10;99.90;;;;;;5008464;28;20054;-82
2024/03/12 09:54:34;;;;;;;3.65;3.45;;;8.10;99.90;;;;;;5029083;28;20140;-81
2024/03/12 09:57:02;;;;;;;4.60;2.97;;;8.10;99.90;;;;;;4993446;28;20045;-84
2024/03/12 09:59:28;;;;;;;0.95;0.88;;;8.10;99.90;;;;;;5009994;28;20041;-82
2024/03/12 10:01:54;;;;;;;1.10;1.00;;;8.10;99.90;;;;;;4994814;28;20041;-82
2024/03/12 10:04:20;;;;;;;6.90;2.10;;;7.40;99.90;;;;;;5026446;28;20055;-83
2024/03/12 10:06:45;;;;;;;1.27;1.27;;;8.00;99.90;;;;;;4993013;28;20049;-80
2024/03/12 10:09:17;;;;;;;2.20;2.00;;;8.00;99.90;;;;;;5028166;28;20064;-82
2024/03/12 10:11:46;;;;;;;2.83;2.17;;;8.00;99.90;;;;;;5026678;28;20048;-83
2024/03/12 10:14:17;;;;;;;0.55;0.55;;;8.10;99.90;;;;;;5010005;28;20211;-81
2024/03/12 10:16:43;;;;;;;0.85;0.85;;;8.20;99.90;;;;;;4992877;28;20080;-83
2024/03/12 10:19:17;;;;;;;2.92;2.42;;;8.20;99.90;;;;;;5026820;28;20033;-83
2024/03/12 10:21:44;;;;;;;1.15;1.15;;;8.40;99.90;;;;;;4982223;28;20072;-82
2024/03/12 10:24:17;;;;;;;1.80;1.70;;;8.50;99.90;;;;;;4979592;28;20042;-83
2024/03/12 10:26:44;;;;;;;2.47;2.38;;;8.60;99.90;;;;;;4979418;28;20103;-82
2024/03/12 10:29:12;;;;;;;2.97;1.00;;;8.70;99.90;;;;;;4981180;28;20129;-82
2024/03/12 10:31:40;;;;;;;1.95;1.65;;;8.80;99.90;;;;;;4962972;28;20388;-83
2024/03/12 10:34:19;;;;;;;1.40;1.00;;;8.90;99.90;;;;;;5012308;28;20037;-81
2024/03/12 10:36:49;;;;;;;1.05;1.00;;;8.90;99.90;;;;;;5000079;28;20048;-83
2024/03/12 10:39:27;;;;;;;2.72;2.53;;;8.90;99.90;;;;;;4995970;28;20029;-82
2024/03/12 10:41:58;;;;;;;1.00;0.82;;;8.80;99.90;;;;;;4998503;28;20036;-81
2024/03/12 10:44:27;;;;;;;2.45;2.25;;;8.80;99.90;;;;;;4999055;28;20048;-81
2024/03/12 10:46:54;;;;;;;1.80;1.17;;;8.90;99.90;;;;;;4999611;28;20048;-82
2024/03/12 10:49:22;;;;;;;1.08;1.08;;;8.70;99.90;;;;;;4981484;28;20068;-83
2024/03/12 10:51:49;;;;;;;6.35;2.10;;;8.60;99.90;;;;;;4994002;28;20060;-83
2024/03/12 10:54:21;;;;;;;3.70;3.08;;;8.60;99.90;;;;;;4977706;28;20125;-81
2024/03/12 10:56:47;;;;;;;1.95;1.85;;;8.50;99.90;;;;;;4992769;28;20406;-82
2024/03/12 10:59:16;;;;;;;0.82;0.82;;;8.50;99.90;;;;;;4990020;28;20389;-83
2024/03/12 11:01:42;;;;;;;1.17;1.17;;;;;;;;;;5010235;28;20042;-83
2024/03/12 11:04:09;;;;;;;1.30;1.23;;;8.70;99.90;;;;;;4998695;28;20045;-82
2024/03/12 11:06:37;;;;;;;1.48;1.38;;;8.70;99.90;;;;;;4996586;28;20100;-82
2024/03/12 11:09:07;;;;;;;1.48;1.40;;;8.80;99.90;;;;;;4983227;28;20490;-82
2024/03/12 11:11:36;;;;;;;1.70;1.60;;;8.70;99.90;;;;;;4994236;28;20247;-82
2024/03/12 11:14:03;;;;;;;0.73;0.73;;;8.70;99.90;;;;;;4982609;28;20046;-82
2024/03/12 11:16:36;;;;;;;1.42;0.85;;;8.90;99.90;;;;;;4979331;28;20046;-82
2024/03/12 11:19:24;;;;;;;0.60;0.60;;;8.80;99.90;;;;;;5011799;28;20049;-86
2024/03/12 11:22:02;;;;;;;0.68;0.68;;;8.90;99.90;;;;;;4994570;28;20044;-83
2024/03/12 11:40:28;;;;;;;2.20;2.10;;;8.50;99.90;;;;;;5186945;23;20072;-83
2024/03/12 11:42:55;;;;;;;0.65;0.65;;;8.40;99.90;;;;;;5095314;28;20075;-84
2024/03/12 11:45:39;;;;;;;1.40;1.10;;;8.40;99.90;;;;;;5073865;28;20032;-83
2024/03/12 11:48:07;;;;;;;0.77;0.77;;;8.30;99.90;;;;;;5075735;28;20035;-84
2024/03/12 11:50:39;;;;;;;1.60;1.33;;;8.20;99.90;;;;;;5075225;28;20032;-81
2024/03/12 11:53:19;;;;;;;1.77;1.67;;;6.60;99.90;;;;;;5080815;28;20036;-83
2024/03/12 11:56:10;;;;;;;1.42;1.27;;;8.10;99.90;;;;;;5060136;28;20040;-84
2024/03/12 11:58:44;;;;;;;1.80;1.73;;;8.20;99.90;;;;;;5058060;28;20036;-84
2024/03/12 12:01:34;;;;;;;1.40;1.30;;;8.10;99.90;;;;;;5062046;28;20135;-85
2024/03/12 12:29:54;;;;;;;2.17;2.05;;;7.80;99.90;;;;;;5760439;22;20053;-83
2024/03/12 12:32:20;;;;;;;10.32;3.50;;;7.70;99.90;;;;;;5040210;28;20105;-82
2024/03/12 12:34:46;;;;;;;1.70;1.17;;;7.80;99.90;;;;;;5019003;28;20036;-82
2024/03/12 12:37:14;;;;;;;;;;;7.70;99.90;;;;;;5009179;28;20075;-82
2024/03/12 12:39:40;;;;;;;0.60;0.60;;;7.60;99.90;;;;;;5022548;28;19932;-83
2024/03/12 12:42:07;;;;;;;;;;;7.80;99.90;;;;;;5004256;28;20041;-83
2024/03/12 12:44:33;;;;;;;2.13;2.00;;;7.60;99.90;;;;;;5010733;28;19920;-83
2024/03/12 12:47:05;;;;;;;1.70;1.60;;;7.70;99.90;;;;;;4988356;28;20060;-82
2024/03/12 12:49:34;;;;;;;1.38;1.20;;;7.60;99.90;;;;;;5020786;28;20041;-83
2024/03/12 12:52:03;;;;;;;1.45;1.35;;;7.60;99.90;;;;;;5018277;28;20095;-82
2024/03/12 12:54:31;;;;;;;1.80;1.70;;;7.60;99.90;;;;;;5002661;28;20045;-83
2024/03/12 12:57:00;;;;;;;1.65;1.55;;;7.80;99.90;;;;;;5020113;28;20043;-85
2024/03/12 12:59:34;;;;;;;3.20;2.20;;;7.60;99.90;;;;;;5016573;28;20093;-84
2024/03/12 13:02:22;;;;;;;1.40;1.33;;;7.50;99.90;;;;;;5025355;28;20503;-84
2024/03/12 13:07:32;;;;;;;0.85;0.85;;;7.60;99.90;;;;;;5741876;22;20060;-82
2024/03/12 13:10:18;;;;;;;2.10;2.00;;;7.60;99.90;;;;;;5055848;28;20037;-84
2024/03/12 13:12:47;;;;;;;0.77;0.77;;;7.70;99.90;;;;;;5025834;28;20044;-83
2024/03/12 13:15:27;;;;;;;3.05;2.78;;;7.60;99.90;;;;;;5039493;28;20052;-82
2024/03/12 13:17:54;;;;;;;0.60;0.60;;;7.50;99.90;;;;;;5038493;28;20122;-83
2024/03/12 13:20:20;;;;;;;0.50;0.50;;;7.60;99.90;;;;;;5039572;28;20047;-83
2024/03/12 13:22:50;;;;;;;6.15;4.13;;;7.70;99.90;;;;;;5040252;28;20052;-83
2024/03/12 13:25:20;;;;;;;3.70;3.22;;;7.80;99.90;;;;;;5041199;28;20055;-85
2024/03/12 13:27:46;;;;;;;1.35;1.10;;;7.90;99.90;;;;;;5041935;28;20121;-83
2024/03/12 13:30:18;;;;;;;0.50;0.50;;;8.00;99.90;;;;;;5046143;28;20040;-83
2024/03/12 13:32:46;;;;;;;2.33;1.50;;;8.00;99.90;;;;;;5046450;28;20047;-82
2024/03/12 13:35:12;;;;;;;0.73;0.73;;;7.90;99.90;;;;;;5019029;28;20064;-84
2024/03/12 13:37:39;;;;;;;2.10;1.95;;;8.10;99.90;;;;;;5036149;28;20507;-84
2024/03/12 13:40:05;;;;;;;0.60;0.60;;;8.10;99.90;;;;;;5039134;28;20033;-82
2024/03/12 13:42:32;;;;;;;1.95;1.80;;;8.00;99.90;;;;;;5023536;28;20127;-84
2024/03/12 13:44:58;;;;;;;0.80;0.75;;;8.10;99.90;;;;;;5041945;28;20068;-82
2024/03/12 13:47:25;;;;;;;3.40;1.08;;;8.20;99.90;;;;;;5043562;28;20064;-83
2024/03/12 13:49:54;;;;;;;0.73;0.73;;;8.30;99.90;;;;;;5041703;28;20127;-84
2024/03/12 14:00:09;;;;;;;0.77;0.77;;;8.50;99.90;;;;;;5312302;22;20058;-82
2024/03/12 14:02:39;;;;;;;1.05;1.05;;;8.50;99.90;;;;;;4962342;28;20452;-83
2024/03/12 14:05:06;;;;;;;1.08;1.05;;;8.50;99.90;;;;;;4980102;28;20046;-83